sensor_id;sensor_type;location;lat;lon;timestamp;P1;durP1;ratioP1;P2;durP2;ratioP2
52508;SDS011;38420;53.150;6.370;2023-12-28T00:00:00;5.57;;;2.40;;
52508;SDS011;38420;53.150;6.370;2023-12-28T00:02:25;4.40;;;2.80;;
52508;SDS011;38420;53.150;6.370;2023-12-28T00:04:51;4.47;;;2.78;;
52508;SDS011;38420;53.150;6.370;2023-12-28T00:07:16;6.90;;;2.08;;
52508;SDS011;38420;53.150;6.370;2023-12-28T00:09:42;6.70;;;2.40;;
52508;SDS011;38420;53.150;6.370;2023-12-28T00:12:07;4.55;;;2.33;;
52508;SDS011;38420;53.150;6.370;2023-12-28T00:14:33;6.32;;;2.70;;
52508;SDS011;38420;53.150;6.370;2023-12-28T00:16:58;3.25;;;2.10;;
52508;SDS011;38420;53.150;6.370;2023-12-28T00:19:24;2.95;;;1.77;;
52508;SDS011;38420;53.150;6.370;2023-12-28T00:21:50;4.57;;;2.03;;
52508;SDS011;38420;53.150;6.370;2023-12-28T00:24:15;3.67;;;1.90;;
52508;SDS011;38420;53.150;6.370;2023-12-28T00:26:41;4.20;;;2.05;;
52508;SDS011;38420;53.150;6.370;2023-12-28T00:29:07;4.38;;;2.10;;
52508;SDS011;38420;53.150;6.370;2023-12-28T00:31:32;4.97;;;2.38;;
52508;SDS011;38420;53.150;6.370;2023-12-28T00:33:58;5.63;;;2.33;;
52508;SDS011;38420;53.150;6.370;2023-12-28T00:36:23;3.65;;;2.10;;
52508;SDS011;38420;53.150;6.370;2023-12-28T00:38:49;4.95;;;2.10;;
52508;SDS011;38420;53.150;6.370;2023-12-28T00:41:15;3.33;;;2.22;;
52508;SDS011;38420;53.150;6.370;2023-12-28T00:43:40;3.55;;;2.25;;
52508;SDS011;38420;53.150;6.370;2023-12-28T00:46:06;4.15;;;2.22;;
52508;SDS011;38420;53.150;6.370;2023-12-28T00:48:31;3.72;;;2.05;;
52508;SDS011;38420;53.150;6.370;2023-12-28T00:50:57;4.85;;;2.38;;
52508;SDS011;38420;53.150;6.370;2023-12-28T00:53:24;6.03;;;2.70;;
52508;SDS011;38420;53.150;6.370;2023-12-28T00:55:51;6.22;;;2.55;;
52508;SDS011;38420;53.150;6.370;2023-12-28T00:58:16;3.05;;;1.90;;
52508;SDS011;38420;53.150;6.370;2023-12-28T01:00:42;11.13;;;2.53;;
52508;SDS011;38420;53.150;6.370;2023-12-28T01:03:08;9.77;;;3.25;;
52508;SDS011;38420;53.150;6.370;2023-12-28T01:05:33;5.35;;;1.98;;
52508;SDS011;38420;53.150;6.370;2023-12-28T01:07:59;8.65;;;2.63;;
52508;SDS011;38420;53.150;6.370;2023-12-28T01:10:24;7.82;;;2.83;;
52508;SDS011;38420;53.150;6.370;2023-12-28T01:12:50;9.40;;;2.97;;
52508;SDS011;38420;53.150;6.370;2023-12-28T01:15:16;4.72;;;2.15;;
52508;SDS011;38420;53.150;6.370;2023-12-28T01:17:42;6.53;;;2.67;;
52508;SDS011;38420;53.150;6.370;2023-12-28T01:20:08;12.15;;;2.72;;
52508;SDS011;38420;53.150;6.370;2023-12-28T01:22:34;8.05;;;2.40;;
52508;SDS011;38420;53.150;6.370;2023-12-28T01:25:00;4.30;;;1.90;;
52508;SDS011;38420;53.150;6.370;2023-12-28T01:27:25;7.38;;;1.98;;
52508;SDS011;38420;53.150;6.370;2023-12-28T01:29:51;5.93;;;2.28;;
52508;SDS011;38420;53.150;6.370;2023-12-28T01:32:17;6.32;;;2.45;;
52508;SDS011;38420;53.150;6.370;2023-12-28T01:34:42;9.35;;;2.17;;
52508;SDS011;38420;53.150;6.370;2023-12-28T01:37:08;11.60;;;3.08;;
52508;SDS011;38420;53.150;6.370;2023-12-28T01:39:33;7.28;;;2.70;;
52508;SDS011;38420;53.150;6.370;2023-12-28T01:41:59;5.80;;;1.73;;
52508;SDS011;38420;53.150;6.370;2023-12-28T01:44:25;8.43;;;2.85;;
52508;SDS011;38420;53.150;6.370;2023-12-28T01:46:50;8.73;;;2.92;;
52508;SDS011;38420;53.150;6.370;2023-12-28T01:49:17;7.47;;;2.03;;
52508;SDS011;38420;53.150;6.370;2023-12-28T01:51:42;11.60;;;2.25;;
52508;SDS011;38420;53.150;6.370;2023-12-28T01:54:10;9.82;;;3.00;;
52508;SDS011;38420;53.150;6.370;2023-12-28T01:56:36;4.47;;;2.55;;
52508;SDS011;38420;53.150;6.370;2023-12-28T01:59:02;7.07;;;2.97;;
52508;SDS011;38420;53.150;6.370;2023-12-28T02:01:28;12.07;;;2.53;;
52508;SDS011;38420;53.150;6.370;2023-12-28T02:03:54;8.82;;;2.97;;
52508;SDS011;38420;53.150;6.370;2023-12-28T02:06:20;9.02;;;2.70;;
52508;SDS011;38420;53.150;6.370;2023-12-28T02:08:48;10.73;;;2.50;;
52508;SDS011;38420;53.150;6.370;2023-12-28T02:11:14;6.53;;;2.28;;
52508;SDS011;38420;53.150;6.370;2023-12-28T02:13:39;13.43;;;3.75;;
52508;SDS011;38420;53.150;6.370;2023-12-28T02:16:07;11.13;;;3.25;;
52508;SDS011;38420;53.150;6.370;2023-12-28T02:18:39;5.88;;;3.03;;
52508;SDS011;38420;53.150;6.370;2023-12-28T02:21:08;13.23;;;2.95;;
52508;SDS011;38420;53.150;6.370;2023-12-28T02:23:35;7.10;;;2.88;;
52508;SDS011;38420;53.150;6.370;2023-12-28T02:26:00;11.05;;;3.08;;
52508;SDS011;38420;53.150;6.370;2023-12-28T02:28:26;8.43;;;2.75;;
52508;SDS011;38420;53.150;6.370;2023-12-28T02:30:52;9.38;;;2.67;;
52508;SDS011;38420;53.150;6.370;2023-12-28T02:33:33;8.32;;;3.00;;
52508;SDS011;38420;53.150;6.370;2023-12-28T02:36:02;9.88;;;2.58;;
52508;SDS011;38420;53.150;6.370;2023-12-28T02:38:32;11.07;;;2.33;;
52508;SDS011;38420;53.150;6.370;2023-12-28T02:41:00;6.95;;;2.65;;
52508;SDS011;38420;53.150;6.370;2023-12-28T02:43:26;7.88;;;3.03;;
52508;SDS011;38420;53.150;6.370;2023-12-28T02:45:52;8.52;;;2.55;;
52508;SDS011;38420;53.150;6.370;2023-12-28T02:48:18;14.13;;;2.88;;
52508;SDS011;38420;53.150;6.370;2023-12-28T02:50:43;11.65;;;3.05;;
52508;SDS011;38420;53.150;6.370;2023-12-28T02:53:09;16.92;;;3.22;;
52508;SDS011;38420;53.150;6.370;2023-12-28T02:55:34;10.40;;;3.15;;
52508;SDS011;38420;53.150;6.370;2023-12-28T02:58:00;9.30;;;3.03;;
52508;SDS011;38420;53.150;6.370;2023-12-28T03:00:26;13.15;;;2.72;;
52508;SDS011;38420;53.150;6.370;2023-12-28T03:02:52;8.30;;;2.60;;
52508;SDS011;38420;53.150;6.370;2023-12-28T03:05:18;8.70;;;2.85;;
52508;SDS011;38420;53.150;6.370;2023-12-28T03:07:44;7.50;;;2.83;;
52508;SDS011;38420;53.150;6.370;2023-12-28T03:10:10;11.20;;;3.08;;
52508;SDS011;38420;53.150;6.370;2023-12-28T03:12:36;9.52;;;2.75;;
52508;SDS011;38420;53.150;6.370;2023-12-28T03:15:02;9.65;;;2.38;;
52508;SDS011;38420;53.150;6.370;2023-12-28T03:17:28;5.93;;;2.00;;
52508;SDS011;38420;53.150;6.370;2023-12-28T03:19:55;10.13;;;3.33;;
52508;SDS011;38420;53.150;6.370;2023-12-28T03:22:21;12.60;;;3.45;;
52508;SDS011;38420;53.150;6.370;2023-12-28T03:24:47;6.88;;;2.00;;
52508;SDS011;38420;53.150;6.370;2023-12-28T03:27:13;10.10;;;2.35;;
52508;SDS011;38420;53.150;6.370;2023-12-28T03:29:40;9.00;;;1.83;;
52508;SDS011;38420;53.150;6.370;2023-12-28T03:32:07;7.07;;;1.88;;
52508;SDS011;38420;53.150;6.370;2023-12-28T03:34:33;7.47;;;2.38;;
52508;SDS011;38420;53.150;6.370;2023-12-28T03:36:59;12.73;;;2.88;;
52508;SDS011;38420;53.150;6.370;2023-12-28T03:39:24;6.20;;;1.77;;
52508;SDS011;38420;53.150;6.370;2023-12-28T03:41:50;5.70;;;1.80;;
52508;SDS011;38420;53.150;6.370;2023-12-28T03:44:18;9.35;;;2.78;;
52508;SDS011;38420;53.150;6.370;2023-12-28T03:46:47;11.10;;;2.55;;
52508;SDS011;38420;53.150;6.370;2023-12-28T03:49:16;13.85;;;1.85;;
52508;SDS011;38420;53.150;6.370;2023-12-28T03:51:42;8.52;;;2.78;;
52508;SDS011;38420;53.150;6.370;2023-12-28T03:54:08;7.47;;;2.28;;
52508;SDS011;38420;53.150;6.370;2023-12-28T03:56:34;8.50;;;3.00;;
52508;SDS011;38420;53.150;6.370;2023-12-28T03:59:00;8.75;;;2.63;;
52508;SDS011;38420;53.150;6.370;2023-12-28T04:01:26;10.07;;;2.60;;
52508;SDS011;38420;53.150;6.370;2023-12-28T04:03:52;11.00;;;3.25;;
52508;SDS011;38420;53.150;6.370;2023-12-28T04:06:18;12.50;;;3.00;;
52508;SDS011;38420;53.150;6.370;2023-12-28T04:08:43;11.45;;;3.05;;
52508;SDS011;38420;53.150;6.370;2023-12-28T04:11:09;9.10;;;3.20;;
52508;SDS011;38420;53.150;6.370;2023-12-28T04:13:35;12.40;;;2.90;;
52508;SDS011;38420;53.150;6.370;2023-12-28T04:16:01;15.75;;;3.03;;
52508;SDS011;38420;53.150;6.370;2023-12-28T04:18:27;5.72;;;2.05;;
52508;SDS011;38420;53.150;6.370;2023-12-28T04:20:53;5.85;;;1.83;;
52508;SDS011;38420;53.150;6.370;2023-12-28T04:23:19;9.27;;;2.38;;
52508;SDS011;38420;53.150;6.370;2023-12-28T04:25:45;13.13;;;3.03;;
52508;SDS011;38420;53.150;6.370;2023-12-28T04:28:11;17.20;;;2.72;;
52508;SDS011;38420;53.150;6.370;2023-12-28T04:30:36;6.10;;;2.15;;
52508;SDS011;38420;53.150;6.370;2023-12-28T04:33:02;8.52;;;2.13;;
52508;SDS011;38420;53.150;6.370;2023-12-28T04:35:28;6.03;;;2.22;;
52508;SDS011;38420;53.150;6.370;2023-12-28T04:37:54;11.52;;;2.30;;
52508;SDS011;38420;53.150;6.370;2023-12-28T04:40:20;9.93;;;2.65;;
52508;SDS011;38420;53.150;6.370;2023-12-28T04:42:45;13.90;;;2.50;;
52508;SDS011;38420;53.150;6.370;2023-12-28T04:45:11;10.38;;;1.50;;
52508;SDS011;38420;53.150;6.370;2023-12-28T04:47:37;10.45;;;2.20;;
52508;SDS011;38420;53.150;6.370;2023-12-28T04:50:03;11.85;;;2.50;;
52508;SDS011;38420;53.150;6.370;2023-12-28T04:52:29;11.90;;;2.70;;
52508;SDS011;38420;53.150;6.370;2023-12-28T04:54:55;9.75;;;2.80;;
52508;SDS011;38420;53.150;6.370;2023-12-28T04:57:20;10.50;;;2.33;;
52508;SDS011;38420;53.150;6.370;2023-12-28T04:59:49;13.73;;;3.13;;
52508;SDS011;38420;53.150;6.370;2023-12-28T05:02:15;9.05;;;2.25;;
52508;SDS011;38420;53.150;6.370;2023-12-28T05:04:41;10.30;;;2.42;;
52508;SDS011;38420;53.150;6.370;2023-12-28T05:07:06;4.07;;;1.83;;
52508;SDS011;38420;53.150;6.370;2023-12-28T05:09:32;10.27;;;2.78;;
52508;SDS011;38420;53.150;6.370;2023-12-28T05:11:58;6.05;;;1.85;;
52508;SDS011;38420;53.150;6.370;2023-12-28T05:14:23;10.13;;;2.65;;
52508;SDS011;38420;53.150;6.370;2023-12-28T05:16:49;9.48;;;3.35;;
52508;SDS011;38420;53.150;6.370;2023-12-28T05:19:15;8.90;;;2.38;;
52508;SDS011;38420;53.150;6.370;2023-12-28T05:21:40;12.05;;;2.33;;
52508;SDS011;38420;53.150;6.370;2023-12-28T05:24:06;11.85;;;1.98;;
52508;SDS011;38420;53.150;6.370;2023-12-28T05:26:32;8.43;;;1.90;;
52508;SDS011;38420;53.150;6.370;2023-12-28T05:28:57;5.55;;;2.13;;
52508;SDS011;38420;53.150;6.370;2023-12-28T05:31:23;5.88;;;2.10;;
52508;SDS011;38420;53.150;6.370;2023-12-28T05:33:49;7.40;;;1.65;;
52508;SDS011;38420;53.150;6.370;2023-12-28T05:36:14;11.77;;;2.38;;
52508;SDS011;38420;53.150;6.370;2023-12-28T05:38:40;13.88;;;3.13;;
52508;SDS011;38420;53.150;6.370;2023-12-28T05:41:05;5.05;;;1.70;;
52508;SDS011;38420;53.150;6.370;2023-12-28T05:43:31;9.13;;;1.63;;
52508;SDS011;38420;53.150;6.370;2023-12-28T05:45:57;6.40;;;2.22;;
52508;SDS011;38420;53.150;6.370;2023-12-28T05:48:22;8.85;;;3.28;;
52508;SDS011;38420;53.150;6.370;2023-12-28T05:50:48;11.10;;;2.30;;
52508;SDS011;38420;53.150;6.370;2023-12-28T05:53:14;9.57;;;2.60;;
52508;SDS011;38420;53.150;6.370;2023-12-28T05:55:43;14.07;;;2.80;;
52508;SDS011;38420;53.150;6.370;2023-12-28T05:58:09;8.75;;;3.03;;
52508;SDS011;38420;53.150;6.370;2023-12-28T06:00:35;8.40;;;1.92;;
52508;SDS011;38420;53.150;6.370;2023-12-28T06:03:04;8.50;;;1.98;;
52508;SDS011;38420;53.150;6.370;2023-12-28T06:05:30;11.02;;;2.30;;
52508;SDS011;38420;53.150;6.370;2023-12-28T06:07:56;10.43;;;2.95;;
52508;SDS011;38420;53.150;6.370;2023-12-28T06:10:22;8.32;;;2.45;;
52508;SDS011;38420;53.150;6.370;2023-12-28T06:12:49;10.65;;;2.80;;
52508;SDS011;38420;53.150;6.370;2023-12-28T06:15:14;10.77;;;1.98;;
52508;SDS011;38420;53.150;6.370;2023-12-28T06:17:40;10.77;;;2.30;;
52508;SDS011;38420;53.150;6.370;2023-12-28T06:20:06;11.75;;;2.00;;
52508;SDS011;38420;53.150;6.370;2023-12-28T06:22:33;13.90;;;2.70;;
52508;SDS011;38420;53.150;6.370;2023-12-28T06:24:59;12.55;;;2.13;;
52508;SDS011;38420;53.150;6.370;2023-12-28T06:27:24;10.00;;;2.80;;
52508;SDS011;38420;53.150;6.370;2023-12-28T06:29:50;14.90;;;3.08;;
52508;SDS011;38420;53.150;6.370;2023-12-28T06:32:16;13.35;;;2.85;;
52508;SDS011;38420;53.150;6.370;2023-12-28T06:34:41;11.32;;;2.22;;
52508;SDS011;38420;53.150;6.370;2023-12-28T06:37:07;9.18;;;2.28;;
52508;SDS011;38420;53.150;6.370;2023-12-28T06:39:32;8.27;;;2.42;;
52508;SDS011;38420;53.150;6.370;2023-12-28T06:41:58;13.38;;;2.53;;
52508;SDS011;38420;53.150;6.370;2023-12-28T06:44:23;7.38;;;2.40;;
52508;SDS011;38420;53.150;6.370;2023-12-28T06:46:49;12.10;;;2.85;;
52508;SDS011;38420;53.150;6.370;2023-12-28T06:49:14;10.90;;;2.38;;
52508;SDS011;38420;53.150;6.370;2023-12-28T06:51:40;9.32;;;2.15;;
52508;SDS011;38420;53.150;6.370;2023-12-28T06:54:07;13.35;;;1.92;;
52508;SDS011;38420;53.150;6.370;2023-12-28T06:56:34;11.18;;;2.10;;
52508;SDS011;38420;53.150;6.370;2023-12-28T06:58:59;8.95;;;1.98;;
52508;SDS011;38420;53.150;6.370;2023-12-28T07:01:25;12.93;;;3.00;;
52508;SDS011;38420;53.150;6.370;2023-12-28T07:03:50;11.52;;;2.78;;
52508;SDS011;38420;53.150;6.370;2023-12-28T07:06:17;9.43;;;2.67;;
52508;SDS011;38420;53.150;6.370;2023-12-28T07:08:42;7.65;;;2.47;;
52508;SDS011;38420;53.150;6.370;2023-12-28T07:11:11;12.68;;;2.10;;
52508;SDS011;38420;53.150;6.370;2023-12-28T07:13:37;8.23;;;2.25;;
52508;SDS011;38420;53.150;6.370;2023-12-28T07:16:03;10.35;;;3.28;;
52508;SDS011;38420;53.150;6.370;2023-12-28T07:18:29;18.10;;;3.22;;
52508;SDS011;38420;53.150;6.370;2023-12-28T07:20:55;13.18;;;2.80;;
52508;SDS011;38420;53.150;6.370;2023-12-28T07:23:20;16.67;;;3.33;;
52508;SDS011;38420;53.150;6.370;2023-12-28T07:25:46;16.85;;;2.67;;
52508;SDS011;38420;53.150;6.370;2023-12-28T07:28:12;17.10;;;2.58;;
52508;SDS011;38420;53.150;6.370;2023-12-28T07:30:37;7.18;;;1.88;;
52508;SDS011;38420;53.150;6.370;2023-12-28T07:33:03;11.05;;;2.67;;
52508;SDS011;38420;53.150;6.370;2023-12-28T07:35:29;15.38;;;4.47;;
52508;SDS011;38420;53.150;6.370;2023-12-28T07:37:55;9.52;;;3.05;;
52508;SDS011;38420;53.150;6.370;2023-12-28T07:40:20;13.60;;;2.63;;
52508;SDS011;38420;53.150;6.370;2023-12-28T07:42:46;15.32;;;3.38;;
52508;SDS011;38420;53.150;6.370;2023-12-28T07:45:12;13.80;;;3.17;;
52508;SDS011;38420;53.150;6.370;2023-12-28T07:47:37;20.95;;;2.88;;
52508;SDS011;38420;53.150;6.370;2023-12-28T07:50:03;14.93;;;3.40;;
52508;SDS011;38420;53.150;6.370;2023-12-28T07:52:29;15.05;;;3.30;;
52508;SDS011;38420;53.150;6.370;2023-12-28T07:54:54;15.90;;;3.38;;
52508;SDS011;38420;53.150;6.370;2023-12-28T07:57:20;17.95;;;3.72;;
52508;SDS011;38420;53.150;6.370;2023-12-28T07:59:46;17.80;;;3.17;;
52508;SDS011;38420;53.150;6.370;2023-12-28T08:02:12;13.52;;;3.05;;
52508;SDS011;38420;53.150;6.370;2023-12-28T08:04:37;17.55;;;2.90;;
52508;SDS011;38420;53.150;6.370;2023-12-28T08:07:03;21.40;;;3.65;;
52508;SDS011;38420;53.150;6.370;2023-12-28T08:09:29;26.73;;;5.28;;
52508;SDS011;38420;53.150;6.370;2023-12-28T08:11:55;16.02;;;4.40;;
52508;SDS011;38420;53.150;6.370;2023-12-28T08:14:21;12.23;;;3.05;;
52508;SDS011;38420;53.150;6.370;2023-12-28T08:16:46;29.95;;;5.80;;
52508;SDS011;38420;53.150;6.370;2023-12-28T08:19:12;14.82;;;3.28;;
52508;SDS011;38420;53.150;6.370;2023-12-28T08:21:37;16.50;;;4.50;;
52508;SDS011;38420;53.150;6.370;2023-12-28T08:24:03;18.60;;;4.32;;
52508;SDS011;38420;53.150;6.370;2023-12-28T08:26:29;17.42;;;3.65;;
52508;SDS011;38420;53.150;6.370;2023-12-28T08:28:55;15.95;;;3.08;;
52508;SDS011;38420;53.150;6.370;2023-12-28T08:31:20;18.30;;;3.28;;
52508;SDS011;38420;53.150;6.370;2023-12-28T08:33:46;16.15;;;3.38;;
52508;SDS011;38420;53.150;6.370;2023-12-28T08:36:12;15.02;;;4.05;;
52508;SDS011;38420;53.150;6.370;2023-12-28T08:38:38;19.33;;;3.20;;
52508;SDS011;38420;53.150;6.370;2023-12-28T08:41:04;9.90;;;2.83;;
52508;SDS011;38420;53.150;6.370;2023-12-28T08:43:34;25.77;;;3.85;;
52508;SDS011;38420;53.150;6.370;2023-12-28T08:46:01;24.35;;;3.70;;
52508;SDS011;38420;53.150;6.370;2023-12-28T08:48:27;23.73;;;4.50;;
52508;SDS011;38420;53.150;6.370;2023-12-28T08:50:52;21.90;;;3.90;;
52508;SDS011;38420;53.150;6.370;2023-12-28T08:53:18;22.25;;;4.70;;
52508;SDS011;38420;53.150;6.370;2023-12-28T08:55:43;24.90;;;4.60;;
52508;SDS011;38420;53.150;6.370;2023-12-28T08:58:09;16.67;;;3.42;;
52508;SDS011;38420;53.150;6.370;2023-12-28T09:00:34;21.05;;;4.65;;
52508;SDS011;38420;53.150;6.370;2023-12-28T09:03:00;20.63;;;3.92;;
52508;SDS011;38420;53.150;6.370;2023-12-28T09:05:25;28.35;;;4.18;;
52508;SDS011;38420;53.150;6.370;2023-12-28T09:07:51;18.27;;;3.00;;
52508;SDS011;38420;53.150;6.370;2023-12-28T09:10:16;28.38;;;4.97;;
52508;SDS011;38420;53.150;6.370;2023-12-28T09:12:42;17.40;;;4.03;;
52508;SDS011;38420;53.150;6.370;2023-12-28T09:15:08;24.67;;;4.50;;
52508;SDS011;38420;53.150;6.370;2023-12-28T09:17:34;31.58;;;4.72;;
52508;SDS011;38420;53.150;6.370;2023-12-28T09:20:00;27.27;;;4.53;;
52508;SDS011;38420;53.150;6.370;2023-12-28T09:22:26;16.98;;;4.53;;
52508;SDS011;38420;53.150;6.370;2023-12-28T09:24:52;19.98;;;4.32;;
52508;SDS011;38420;53.150;6.370;2023-12-28T09:27:17;17.15;;;3.92;;
52508;SDS011;38420;53.150;6.370;2023-12-28T09:29:43;23.63;;;3.88;;
52508;SDS011;38420;53.150;6.370;2023-12-28T09:32:09;27.25;;;4.45;;
52508;SDS011;38420;53.150;6.370;2023-12-28T09:34:34;18.05;;;3.15;;
52508;SDS011;38420;53.150;6.370;2023-12-28T09:37:00;11.70;;;2.97;;
52508;SDS011;38420;53.150;6.370;2023-12-28T09:39:25;15.30;;;3.05;;
52508;SDS011;38420;53.150;6.370;2023-12-28T09:42:04;20.77;;;2.90;;
52508;SDS011;38420;53.150;6.370;2023-12-28T09:44:31;21.10;;;4.30;;
52508;SDS011;38420;53.150;6.370;2023-12-28T09:46:58;20.33;;;3.45;;
52508;SDS011;38420;53.150;6.370;2023-12-28T09:49:27;18.92;;;4.00;;
52508;SDS011;38420;53.150;6.370;2023-12-28T09:51:53;17.33;;;3.97;;
52508;SDS011;38420;53.150;6.370;2023-12-28T09:54:18;16.80;;;3.50;;
52508;SDS011;38420;53.150;6.370;2023-12-28T09:56:44;20.52;;;4.00;;
52508;SDS011;38420;53.150;6.370;2023-12-28T09:59:10;29.80;;;4.95;;
52508;SDS011;38420;53.150;6.370;2023-12-28T10:01:36;26.23;;;4.38;;
52508;SDS011;38420;53.150;6.370;2023-12-28T10:04:02;19.83;;;4.85;;
52508;SDS011;38420;53.150;6.370;2023-12-28T10:06:28;20.95;;;3.78;;
52508;SDS011;38420;53.150;6.370;2023-12-28T10:08:54;19.42;;;3.65;;
52508;SDS011;38420;53.150;6.370;2023-12-28T10:11:21;15.15;;;2.83;;
52508;SDS011;38420;53.150;6.370;2023-12-28T10:13:48;18.10;;;3.13;;
52508;SDS011;38420;53.150;6.370;2023-12-28T10:16:15;13.25;;;3.33;;
52508;SDS011;38420;53.150;6.370;2023-12-28T10:18:41;13.32;;;3.22;;
52508;SDS011;38420;53.150;6.370;2023-12-28T10:21:10;24.88;;;3.45;;
52508;SDS011;38420;53.150;6.370;2023-12-28T10:23:36;18.50;;;4.10;;
52508;SDS011;38420;53.150;6.370;2023-12-28T10:26:03;17.75;;;3.33;;
52508;SDS011;38420;53.150;6.370;2023-12-28T10:28:32;11.55;;;2.95;;
52508;SDS011;38420;53.150;6.370;2023-12-28T10:30:59;22.88;;;3.90;;
52508;SDS011;38420;53.150;6.370;2023-12-28T10:33:26;13.88;;;3.88;;
52508;SDS011;38420;53.150;6.370;2023-12-28T10:35:51;12.65;;;2.72;;
52508;SDS011;38420;53.150;6.370;2023-12-28T10:38:19;15.25;;;3.08;;
52508;SDS011;38420;53.150;6.370;2023-12-28T10:40:44;11.52;;;3.20;;
52508;SDS011;38420;53.150;6.370;2023-12-28T10:43:14;11.20;;;2.45;;
52508;SDS011;38420;53.150;6.370;2023-12-28T10:45:41;13.82;;;3.08;;
52508;SDS011;38420;53.150;6.370;2023-12-28T10:48:12;10.52;;;3.17;;
52508;SDS011;38420;53.150;6.370;2023-12-28T10:50:39;18.73;;;3.58;;
52508;SDS011;38420;53.150;6.370;2023-12-28T10:58:17;15.35;;;3.63;;
52508;SDS011;38420;53.150;6.370;2023-12-28T11:00:54;8.60;;;3.13;;
52508;SDS011;38420;53.150;6.370;2023-12-28T11:03:23;19.00;;;3.65;;
52508;SDS011;38420;53.150;6.370;2023-12-28T11:05:59;21.65;;;3.20;;
52508;SDS011;38420;53.150;6.370;2023-12-28T11:08:26;21.40;;;3.30;;
52508;SDS011;38420;53.150;6.370;2023-12-28T11:10:52;18.90;;;4.20;;
52508;SDS011;38420;53.150;6.370;2023-12-28T11:13:20;23.75;;;4.18;;
52508;SDS011;38420;53.150;6.370;2023-12-28T11:15:48;12.48;;;2.65;;
52508;SDS011;38420;53.150;6.370;2023-12-28T11:18:16;16.45;;;3.30;;
52508;SDS011;38420;53.150;6.370;2023-12-28T11:20:42;17.27;;;3.15;;
52508;SDS011;38420;53.150;6.370;2023-12-28T11:23:09;14.70;;;3.03;;
52508;SDS011;38420;53.150;6.370;2023-12-28T11:25:36;19.38;;;2.80;;
52508;SDS011;38420;53.150;6.370;2023-12-28T11:28:08;15.88;;;2.92;;
52508;SDS011;38420;53.150;6.370;2023-12-28T11:30:41;13.38;;;3.58;;
52508;SDS011;38420;53.150;6.370;2023-12-28T11:33:07;13.33;;;2.57;;
52508;SDS011;38420;53.150;6.370;2023-12-28T11:35:35;19.75;;;3.00;;
52508;SDS011;38420;53.150;6.370;2023-12-28T11:38:03;17.75;;;2.70;;
52508;SDS011;38420;53.150;6.370;2023-12-28T11:40:40;19.25;;;4.28;;
52508;SDS011;38420;53.150;6.370;2023-12-28T11:43:20;18.67;;;3.33;;
52508;SDS011;38420;53.150;6.370;2023-12-28T11:45:55;16.83;;;2.72;;
52508;SDS011;38420;53.150;6.370;2023-12-28T11:48:24;17.80;;;4.20;;
52508;SDS011;38420;53.150;6.370;2023-12-28T11:50:55;21.05;;;4.53;;
52508;SDS011;38420;53.150;6.370;2023-12-28T11:55:48;11.27;;;3.33;;
52508;SDS011;38420;53.150;6.370;2023-12-28T11:58:15;26.75;;;3.90;;
52508;SDS011;38420;53.150;6.370;2023-12-28T12:00:42;15.50;;;3.65;;
52508;SDS011;38420;53.150;6.370;2023-12-28T12:03:11;12.48;;;3.90;;
52508;SDS011;38420;53.150;6.370;2023-12-28T12:05:38;18.95;;;3.13;;
52508;SDS011;38420;53.150;6.370;2023-12-28T12:08:05;22.80;;;3.78;;
52508;SDS011;38420;53.150;6.370;2023-12-28T12:10:33;17.33;;;3.72;;
52508;SDS011;38420;53.150;6.370;2023-12-28T12:12:59;13.07;;;3.55;;
52508;SDS011;38420;53.150;6.370;2023-12-28T12:15:27;19.05;;;4.93;;
52508;SDS011;38420;53.150;6.370;2023-12-28T12:17:54;20.73;;;4.20;;
52508;SDS011;38420;53.150;6.370;2023-12-28T12:20:20;14.77;;;3.42;;
52508;SDS011;38420;53.150;6.370;2023-12-28T12:22:45;13.45;;;3.05;;
52508;SDS011;38420;53.150;6.370;2023-12-28T12:25:11;12.13;;;3.10;;
52508;SDS011;38420;53.150;6.370;2023-12-28T12:27:37;19.85;;;5.35;;
52508;SDS011;38420;53.150;6.370;2023-12-28T12:30:06;19.30;;;3.55;;
52508;SDS011;38420;53.150;6.370;2023-12-28T12:32:32;13.38;;;4.00;;
52508;SDS011;38420;53.150;6.370;2023-12-28T12:34:59;17.58;;;3.78;;
52508;SDS011;38420;53.150;6.370;2023-12-28T12:37:26;16.13;;;4.10;;
52508;SDS011;38420;53.150;6.370;2023-12-28T12:39:51;14.43;;;3.28;;
52508;SDS011;38420;53.150;6.370;2023-12-28T12:42:19;27.40;;;3.95;;
52508;SDS011;38420;53.150;6.370;2023-12-28T12:44:45;17.35;;;4.32;;
52508;SDS011;38420;53.150;6.370;2023-12-28T12:47:12;25.67;;;4.90;;
52508;SDS011;38420;53.150;6.370;2023-12-28T12:49:38;8.50;;;2.17;;
52508;SDS011;38420;53.150;6.370;2023-12-28T12:52:03;16.42;;;3.47;;
52508;SDS011;38420;53.150;6.370;2023-12-28T12:54:32;24.73;;;4.43;;
52508;SDS011;38420;53.150;6.370;2023-12-28T12:56:57;23.75;;;3.58;;
52508;SDS011;38420;53.150;6.370;2023-12-28T12:59:24;17.40;;;4.18;;
52508;SDS011;38420;53.150;6.370;2023-12-28T13:01:50;14.48;;;3.33;;
52508;SDS011;38420;53.150;6.370;2023-12-28T13:04:18;19.42;;;4.40;;
52508;SDS011;38420;53.150;6.370;2023-12-28T13:06:44;17.67;;;3.50;;
52508;SDS011;38420;53.150;6.370;2023-12-28T13:09:09;13.65;;;2.95;;
52508;SDS011;38420;53.150;6.370;2023-12-28T13:11:36;18.70;;;4.57;;
52508;SDS011;38420;53.150;6.370;2023-12-28T13:14:02;16.00;;;3.85;;
52508;SDS011;38420;53.150;6.370;2023-12-28T13:16:29;15.68;;;2.88;;
52508;SDS011;38420;53.150;6.370;2023-12-28T13:18:55;14.95;;;3.38;;
52508;SDS011;38420;53.150;6.370;2023-12-28T13:21:21;16.60;;;4.22;;
52508;SDS011;38420;53.150;6.370;2023-12-28T13:23:46;28.48;;;4.45;;
52508;SDS011;38420;53.150;6.370;2023-12-28T13:26:12;22.25;;;3.20;;
52508;SDS011;38420;53.150;6.370;2023-12-28T13:28:38;23.25;;;4.13;;
52508;SDS011;38420;53.150;6.370;2023-12-28T13:31:03;19.70;;;3.10;;
52508;SDS011;38420;53.150;6.370;2023-12-28T13:33:29;14.05;;;3.22;;
52508;SDS011;38420;53.150;6.370;2023-12-28T13:35:55;21.27;;;4.20;;
52508;SDS011;38420;53.150;6.370;2023-12-28T13:38:21;10.77;;;3.05;;
52508;SDS011;38420;53.150;6.370;2023-12-28T13:40:47;23.65;;;4.75;;
52508;SDS011;38420;53.150;6.370;2023-12-28T13:43:12;15.30;;;3.75;;
52508;SDS011;38420;53.150;6.370;2023-12-28T13:45:38;15.02;;;3.28;;
52508;SDS011;38420;53.150;6.370;2023-12-28T13:48:03;24.00;;;4.43;;
52508;SDS011;38420;53.150;6.370;2023-12-28T13:50:29;22.83;;;3.03;;
52508;SDS011;38420;53.150;6.370;2023-12-28T13:52:55;13.02;;;4.25;;
52508;SDS011;38420;53.150;6.370;2023-12-28T13:55:21;14.40;;;3.53;;
52508;SDS011;38420;53.150;6.370;2023-12-28T13:57:47;20.58;;;3.83;;
52508;SDS011;38420;53.150;6.370;2023-12-28T14:00:12;19.30;;;3.42;;
52508;SDS011;38420;53.150;6.370;2023-12-28T14:02:38;11.35;;;2.95;;
52508;SDS011;38420;53.150;6.370;2023-12-28T14:05:05;14.65;;;3.70;;
52508;SDS011;38420;53.150;6.370;2023-12-28T14:07:31;13.05;;;3.00;;
52508;SDS011;38420;53.150;6.370;2023-12-28T14:09:58;21.17;;;3.35;;
52508;SDS011;38420;53.150;6.370;2023-12-28T14:12:23;14.63;;;3.58;;
52508;SDS011;38420;53.150;6.370;2023-12-28T14:14:49;19.55;;;3.28;;
52508;SDS011;38420;53.150;6.370;2023-12-28T14:17:15;23.23;;;3.45;;
52508;SDS011;38420;53.150;6.370;2023-12-28T14:19:44;14.82;;;3.20;;
52508;SDS011;38420;53.150;6.370;2023-12-28T14:22:11;15.43;;;3.78;;
52508;SDS011;38420;53.150;6.370;2023-12-28T14:24:37;22.92;;;4.15;;
52508;SDS011;38420;53.150;6.370;2023-12-28T14:27:03;19.17;;;3.80;;
52508;SDS011;38420;53.150;6.370;2023-12-28T14:29:29;19.42;;;4.30;;
52508;SDS011;38420;53.150;6.370;2023-12-28T14:31:55;22.48;;;4.55;;
52508;SDS011;38420;53.150;6.370;2023-12-28T14:34:21;17.42;;;3.88;;
52508;SDS011;38420;53.150;6.370;2023-12-28T14:36:47;20.05;;;4.22;;
52508;SDS011;38420;53.150;6.370;2023-12-28T14:39:15;15.80;;;3.33;;